Time;durP1;ratioP1;P1;durP2;ratioP2;P2;SDS_P1;SDS_P2;PMS_P1;PMS_P2;Temp;Humidity;BMP_temperature;BMP_pressure;BME280_temperature;BME280_humidity;BME280_pressure;Samples;Min_cycle;Max_cycle;Signal;HPM_P1;HPM_P2
2023/01/29 00:01:59;;;;;;;4.53;4.00;;;;;1.30;99655.00;;;;4936711;29;20059;-62
2023/01/29 00:04:25;;;;;;;4.45;4.05;;;;;1.20;99654.00;;;;4935931;29;20716;-63
2023/01/29 00:06:52;;;;;;;5.05;4.57;;;;;1.20;99656.00;;;;4936137;29;20047;-61
2023/01/29 00:09:19;;;;;;;6.32;4.90;;;;;1.10;99651.00;;;;4919391;29;20497;-62
2023/01/29 00:11:45;;;;;;;4.43;4.03;;;;;1.10;99647.00;;;;4936443;29;20047;-63
2023/01/29 00:14:12;;;;;;;5.65;4.13;;;;;1.20;99647.00;;;;4936721;29;20039;-61
2023/01/29 00:16:39;;;;;;;5.68;4.50;;;;;1.10;99637.00;;;;4937183;29;20048;-62
2023/01/29 00:19:06;;;;;;;4.30;3.90;;;;;1.10;99651.00;;;;4937849;29;20130;-63
2023/01/29 00:21:33;;;;;;;4.90;4.22;;;;;1.10;99647.00;;;;4920643;29;20135;-62
2023/01/29 00:24:00;;;;;;;4.50;4.05;;;;;1.10;99650.00;;;;4936968;29;20418;-62
2023/01/29 00:26:26;;;;;;;5.32;4.50;;;;;1.20;99640.00;;;;4937321;29;20043;-62
2023/01/29 00:28:55;;;;;;;4.30;3.90;;;;;1.30;99644.00;;;;4936793;29;20417;-63
2023/01/29 00:31:23;;;;;;;6.18;4.90;;;;;1.30;99638.00;;;;4935907;29;20386;-62
2023/01/29 00:33:51;;;;;;;5.55;4.80;;;;;1.30;99631.00;;;;4936171;29;20412;-63
2023/01/29 00:36:19;;;;;;;5.10;4.32;;;;;1.40;99627.00;;;;4935295;29;20048;-62
2023/01/29 00:38:53;;;;;;;6.30;4.43;;;;;1.30;99636.00;;;;4918209;29;20062;-61
2023/01/29 00:46:53;;;;;;;4.75;4.35;;;;;1.20;99648.00;;;;4935036;29;20078;-61
2023/01/29 00:49:20;;;;;;;5.00;4.50;;;;;1.10;99645.00;;;;4918251;29;20400;-62
2023/01/29 00:52:22;;;;;;;5.75;3.97;;;;;1.20;99645.00;;;;4917726;29;20110;-62
2023/01/29 00:54:34;;;;;;;5.13;4.63;;;;;1.30;99642.00;;;;4934395;29;20110;-61
2023/01/29 00:57:01;;;;;;;5.38;4.10;;;;;1.20;99649.00;;;;4918177;29;20051;-62
2023/01/29 00:59:28;;;;;;;6.93;4.22;;;;;1.30;99660.00;;;;4917826;29;20051;-61
2023/01/29 01:04:40;;;;;;;5.00;4.50;;;;;1.00;99663.00;;;;4933983;29;20040;-62
2023/01/29 01:07:07;;;;;;;4.55;4.05;;;;;1.00;99660.00;;;;4917777;29;20082;-61
2023/01/29 01:12:21;;;;;;;4.60;4.20;;;;;1.00;99651.00;;;;4917368;29;20063;-62
2023/01/29 01:14:48;;;;;;;5.38;3.88;;;;;0.90;99650.00;;;;4917000;29;20075;-61
2023/01/29 01:17:14;;;;;;;5.75;4.38;;;;;0.80;99651.00;;;;4934454;29;20050;-62
2023/01/29 01:19:41;;;;;;;4.57;4.07;;;;;0.80;99665.00;;;;4917180;29;20417;-61
2023/01/29 01:22:08;;;;;;;5.65;4.45;;;;;0.70;99662.00;;;;4934322;29;20127;-60
2023/01/29 01:24:34;;;;;;;4.60;4.20;;;;;0.70;99663.00;;;;4933594;29;20078;-61
2023/01/29 01:27:01;;;;;;;6.32;4.50;;;;;0.70;99659.00;;;;4917194;29;20051;-61
2023/01/29 01:29:28;;;;;;;4.75;4.10;;;;;0.80;99662.00;;;;4934232;29;20043;-60
2023/01/29 01:31:54;;;;;;;6.90;4.28;;;;;0.80;99653.00;;;;4934218;29;20131;-61
2023/01/29 01:34:22;;;;;;;4.93;3.83;;;;;0.80;99665.00;;;;4916871;29;20500;-61
2023/01/29 01:36:49;;;;;;;4.50;3.97;;;;;0.80;99661.00;;;;4917221;29;20075;-61
2023/01/29 01:39:15;;;;;;;5.97;4.38;;;;;0.80;99654.00;;;;4934356;29;20048;-63
2023/01/29 01:41:42;;;;;;;7.30;4.32;;;;;0.80;99664.00;;;;4916855;29;20445;-62
2023/01/29 01:44:46;;;;;;;4.68;4.15;;;;;0.80;99663.00;;;;4920926;29;20094;-60
2023/01/29 01:47:14;;;;;;;5.30;4.43;;;;;0.70;99655.00;;;;4922544;29;20055;-60
2023/01/29 01:49:42;;;;;;;6.05;4.75;;;;;0.80;99649.00;;;;4939043;29;20051;-60
2023/01/29 01:52:10;;;;;;;4.47;3.95;;;;;0.80;99651.00;;;;4938998;29;20058;-60
2023/01/29 01:54:37;;;;;;;4.88;4.10;;;;;0.80;99652.00;;;;4938360;29;20048;-62
2023/01/29 01:57:14;;;;;;;4.32;3.92;;;;;0.80;99641.00;;;;4922287;29;20146;-62
2023/01/29 01:59:53;;;;;;;8.50;4.68;;;;;0.80;99642.00;;;;4925237;29;20047;-60
2023/01/29 02:10:47;;;;;;;5.18;4.68;;;;;1.10;99643.00;;;;4924701;29;20150;-61
2023/01/29 02:13:16;;;;;;;8.80;5.03;;;;;1.10;99635.00;;;;4922002;29;20062;-61
2023/01/29 02:15:47;;;;;;;5.47;4.13;;;;;1.10;99633.00;;;;4938303;29;20054;-60
2023/01/29 02:18:16;;;;;;;6.70;4.10;;;;;1.10;99632.00;;;;4938226;29;20043;-60
2023/01/29 02:21:28;;;;;;;4.45;4.07;;;;;1.20;99628.00;;;;4938308;29;20048;-60
2023/01/29 02:24:15;;;;;;;5.22;4.13;;;;;1.10;99632.00;;;;4898035;29;20089;-60
2023/01/29 02:26:52;;;;;;;4.63;4.07;;;;;1.00;99628.00;;;;4898188;29;20055;-60
2023/01/29 02:29:34;;;;;;;5.93;4.30;;;;;0.90;99622.00;;;;4893521;29;20061;-60
2023/01/29 02:32:16;;;;;;;5.82;4.28;;;;;0.80;99613.00;;;;4938056;29;20048;-61
2023/01/29 02:37:40;;;;;;;7.18;4.97;;;;;0.80;99609.00;;;;4938030;29;20051;-61
2023/01/29 02:40:34;;;;;;;5.45;4.80;;;;;0.80;99604.00;;;;4938079;29;20043;-59
2023/01/29 02:43:14;;;;;;;6.63;4.60;;;;;0.90;99601.00;;;;4920858;29;20052;-61
2023/01/29 02:45:51;;;;;;;5.90;4.55;;;;;0.90;99605.00;;;;4937049;29;20390;-60
2023/01/29 02:48:21;;;;;;;4.85;4.15;;;;;0.90;99599.00;;;;4920031;29;20087;-59
2023/01/29 02:50:57;;;;;;;4.65;4.22;;;;;0.90;99594.00;;;;4937092;29;20052;-60
2023/01/29 02:53:41;;;;;;;5.22;4.25;;;;;0.90;99589.00;;;;4919915;29;20052;-61
2023/01/29 02:56:19;;;;;;;5.55;4.45;;;;;1.00;99595.00;;;;4929921;29;20052;-62
2023/01/29 02:58:53;;;;;;;5.00;4.50;;;;;1.10;99589.00;;;;4928210;29;20062;-61
2023/01/29 03:01:29;;;;;;;5.38;4.43;;;;;1.10;99586.00;;;;4919751;29;20142;-61
2023/01/29 03:04:00;;;;;;;4.72;4.30;;;;;1.00;99590.00;;;;4919728;29;20055;-62
2023/01/29 03:06:32;;;;;;;4.85;3.97;;;;;1.00;99591.00;;;;4919432;29;20571;-61
2023/01/29 03:09:06;;;;;;;5.72;4.40;;;;;1.00;99594.00;;;;4936583;29;20048;-62
2023/01/29 03:11:38;;;;;;;;;;;;;1.00;99599.00;;;;4919648;29;20592;-61
2023/01/29 03:14:12;;;;;;;5.13;4.20;;;;;1.00;99616.00;;;;4919026;29;19988;-63
2023/01/29 03:16:44;;;;;;;5.20;3.80;;;;;1.00;99610.00;;;;4919330;29;20067;-60
2023/01/29 03:19:15;;;;;;;7.20;3.60;;;;;0.90;99619.00;;;;4936489;29;20051;-61
2023/01/29 03:21:59;;;;;;;4.40;4.00;;;;;0.90;99618.00;;;;4919546;29;20048;-61
2023/01/29 03:34:15;;;;;;;5.82;4.18;;;;;0.80;99621.00;;;;4923372;29;20054;-62
2023/01/29 03:36:54;;;;;;;6.22;4.20;;;;;0.80;99627.00;;;;4918969;29;20047;-63
2023/01/29 03:39:24;;;;;;;5.30;3.70;;;;;1.00;99626.00;;;;4918912;29;20052;-62
2023/01/29 03:42:07;;;;;;;7.43;4.18;;;;;1.20;99627.00;;;;4918848;29;20056;-62
2023/01/29 03:44:56;;;;;;;5.63;4.28;;;;;1.20;99628.00;;;;4918305;29;20143;-62
2023/01/29 03:48:04;;;;;;;4.30;3.90;;;;;1.10;99632.00;;;;4918847;29;20054;-62
2023/01/29 03:50:50;;;;;;;6.88;4.80;;;;;0.90;99645.00;;;;4887026;29;20051;-62
2023/01/29 03:53:38;;;;;;;5.97;4.55;;;;;0.80;99636.00;;;;4918766;29;20048;-62
2023/01/29 03:56:32;;;;;;;7.72;4.28;;;;;0.70;99639.00;;;;4935725;29;20074;-63
2023/01/29 03:59:17;;;;;;;6.10;4.17;;;;;0.70;99636.00;;;;4918799;29;20055;-60
2023/01/29 04:02:07;;;;;;;6.38;3.60;;;;;0.50;99648.00;;;;4936166;29;20059;-61
2023/01/29 04:04:36;;;;;;;4.70;3.92;;;;;0.60;99643.00;;;;4917906;29;20047;-61
2023/01/29 04:07:22;;;;;;;6.18;4.05;;;;;0.80;99660.00;;;;4918622;29;20044;-61
2023/01/29 04:10:05;;;;;;;4.30;3.85;;;;;0.90;99650.00;;;;4918706;29;20063;-61
2023/01/29 04:12:43;;;;;;;5.50;4.40;;;;;0.80;99657.00;;;;4918875;29;20062;-60
2023/01/29 04:15:16;;;;;;;5.97;4.30;;;;;0.80;99644.00;;;;4918336;29;20050;-61
2023/01/29 04:17:50;;;;;;;6.43;4.40;;;;;0.70;99636.00;;;;4903333;29;20058;-61
2023/01/29 04:20:24;;;;;;;6.40;4.70;;;;;0.60;99627.00;;;;4918717;29;20141;-61
2023/01/29 04:22:52;;;;;;;5.00;4.30;;;;;0.60;99627.00;;;;4918480;29;20048;-61
2023/01/29 04:25:27;;;;;;;6.78;4.78;;;;;0.50;99632.00;;;;4917974;29;20497;-61
2023/01/29 04:28:20;;;;;;;6.70;4.63;;;;;0.60;99624.00;;;;4935468;29;20046;-60
2023/01/29 04:30:57;;;;;;;7.82;4.75;;;;;0.60;99633.00;;;;4918490;29;20130;-61
2023/01/29 04:33:34;;;;;;;5.45;3.83;;;;;0.50;99620.00;;;;4918502;29;20055;-60
2023/01/29 04:36:20;;;;;;;4.50;3.92;;;;;0.50;99631.00;;;;4917780;29;20055;-61
2023/01/29 04:39:11;;;;;;;5.10;4.22;;;;;0.60;99610.00;;;;4918395;29;20043;-61
2023/01/29 04:42:04;;;;;;;5.72;3.95;;;;;0.80;99607.00;;;;4935320;29;20130;-61
2023/01/29 04:44:48;;;;;;;7.00;4.20;;;;;0.90;99598.00;;;;4934745;29;20445;-61
2023/01/29 04:47:29;;;;;;;5.75;4.35;;;;;0.90;99586.00;;;;4935409;29;20057;-61
2023/01/29 04:50:08;;;;;;;6.72;4.15;;;;;0.70;99598.00;;;;4935469;29;20445;-61
2023/01/29 04:52:55;;;;;;;7.45;4.43;;;;;0.70;99596.00;;;;4935819;29;20458;-60
2023/01/29 04:55:37;;;;;;;4.90;4.40;;;;;0.70;99600.00;;;;4918561;29;20044;-61
2023/01/29 04:58:06;;;;;;;6.63;4.75;;;;;0.50;99591.00;;;;4935963;29;20464;-61
2023/01/29 05:00:39;;;;;;;12.43;7.00;;;;;0.70;99600.00;;;;4936029;29;20056;-61
2023/01/29 05:03:08;;;;;;;5.78;5.05;;;;;0.80;99604.00;;;;4935234;29;20143;-61
2023/01/29 05:05:35;;;;;;;5.60;4.50;;;;;0.80;99605.00;;;;4935054;29;20718;-61
2023/01/29 05:08:03;;;;;;;7.05;4.60;;;;;0.80;99607.00;;;;4935269;29;20047;-63
2023/01/29 05:10:30;;;;;;;7.63;4.60;;;;;0.80;99616.00;;;;4918182;29;20051;-62
2023/01/29 05:13:02;;;;;;;8.90;4.80;;;;;0.80;99613.00;;;;4918103;29;20048;-62
2023/01/29 05:15:42;;;;;;;6.45;4.25;;;;;0.80;99616.00;;;;4917766;29;20405;-62
2023/01/29 05:18:09;;;;;;;7.18;4.63;;;;;0.80;99625.00;;;;4935048;29;20171;-63
2023/01/29 05:20:39;;;;;;;5.93;4.63;;;;;0.90;99629.00;;;;4918034;29;20055;-61
2023/01/29 05:23:23;;;;;;;7.78;5.00;;;;;0.90;99632.00;;;;4918003;29;20071;-61
2023/01/29 05:25:50;;;;;;;6.45;4.70;;;;;0.80;99618.00;;;;4917663;29;20052;-61
2023/01/29 05:28:17;;;;;;;5.78;4.20;;;;;0.90;99621.00;;;;4918761;29;20083;-61
2023/01/29 05:30:46;;;;;;;6.00;4.70;;;;;0.90;99617.00;;;;4935894;29;20055;-61
2023/01/29 05:33:18;;;;;;;4.85;4.35;;;;;0.90;99619.00;;;;4935662;29;20044;-62
2023/01/29 05:35:45;;;;;;;7.10;4.32;;;;;1.00;99624.00;;;;4935867;29;20449;-62
2023/01/29 05:38:13;;;;;;;5.82;4.68;;;;;1.00;99638.00;;;;4935891;29;20058;-62
2023/01/29 05:40:39;;;;;;;6.93;4.13;;;;;1.00;99635.00;;;;4935655;29;20486;-62
2023/01/29 05:43:14;;;;;;;7.30;4.55;;;;;0.90;99639.00;;;;4935585;29;20453;-61
2023/01/29 05:45:41;;;;;;;7.95;5.10;;;;;1.00;99631.00;;;;4935074;29;20040;-61
2023/01/29 05:48:08;;;;;;;9.65;5.22;;;;;1.10;99630.00;;;;4935311;29;20054;-61
2023/01/29 05:50:35;;;;;;;7.72;5.22;;;;;1.10;99625.00;;;;4918569;29;20449;-61
2023/01/29 05:53:05;;;;;;;6.43;4.32;;;;;1.10;99617.00;;;;4934979;29;20040;-62
2023/01/29 05:55:31;;;;;;;6.00;4.70;;;;;1.00;99607.00;;;;4934079;29;20050;-62
2023/01/29 05:58:00;;;;;;;11.00;6.95;;;;;0.90;99604.00;;;;4917626;29;20047;-62
2023/01/29 06:00:28;;;;;;;10.80;6.32;;;;;0.90;99607.00;;;;4934700;29;20048;-62
2023/01/29 06:02:55;;;;;;;7.38;4.90;;;;;1.00;99609.00;;;;4917320;29;20509;-61
2023/01/29 06:05:22;;;;;;;7.05;4.65;;;;;0.80;99610.00;;;;4916800;29;20496;-62
2023/01/29 06:07:48;;;;;;;8.07;4.68;;;;;0.80;99609.00;;;;4917457;29;20047;-61
2023/01/29 06:10:16;;;;;;;7.80;4.90;;;;;0.90;99617.00;;;;4934327;29;20052;-62
2023/01/29 06:12:44;;;;;;;6.60;4.47;;;;;0.90;99618.00;;;;4917543;29;20075;-61
2023/01/29 06:15:14;;;;;;;6.57;5.13;;;;;0.80;99615.00;;;;4934045;29;20509;-62
2023/01/29 06:17:41;;;;;;;8.00;4.50;;;;;0.80;99617.00;;;;4934365;29;20543;-62
2023/01/29 06:20:08;;;;;;;7.13;4.75;;;;;0.70;99624.00;;;;4917556;29;20497;-62
2023/01/29 06:22:35;;;;;;;6.43;4.68;;;;;0.70;99613.00;;;;4934307;29;20544;-61
2023/01/29 06:25:01;;;;;;;6.05;4.60;;;;;0.80;99617.00;;;;4901454;29;20055;-63
2023/01/29 06:27:28;;;;;;;6.63;5.38;;;;;0.90;99617.00;;;;4934421;29;20498;-63
2023/01/29 06:29:54;;;;;;;6.57;4.72;;;;;0.80;99623.00;;;;4920093;29;20501;-62
2023/01/29 06:32:21;;;;;;;7.80;4.63;;;;;0.80;99606.00;;;;4937705;29;20047;-63
2023/01/29 06:34:48;;;;;;;4.85;4.25;;;;;0.80;99614.00;;;;4920336;29;20317;-61
2023/01/29 06:37:15;;;;;;;6.78;5.32;;;;;0.80;99610.00;;;;4921331;29;20051;-62
2023/01/29 06:39:41;;;;;;;10.13;5.97;;;;;0.80;99616.00;;;;4938218;29;20051;-61
2023/01/29 06:42:08;;;;;;;7.18;5.30;;;;;0.90;99609.00;;;;4938840;29;20512;-63
2023/01/29 06:44:35;;;;;;;8.02;5.10;;;;;1.00;99618.00;;;;4939011;29;20453;-62
2023/01/29 06:47:02;;;;;;;5.28;4.63;;;;;1.10;99621.00;;;;4930139;29;20044;-62
2023/01/29 06:49:28;;;;;;;4.90;4.40;;;;;1.20;99615.00;;;;4948622;29;20083;-62
2023/01/29 06:51:55;;;;;;;5.85;4.70;;;;;1.20;99609.00;;;;4921542;29;20052;-62
2023/01/29 06:54:21;;;;;;;5.57;4.45;;;;;1.20;99619.00;;;;4937946;29;20047;-62
2023/01/29 06:56:48;;;;;;;7.43;4.60;;;;;1.20;99612.00;;;;4938352;29;20048;-63
2023/01/29 06:59:14;;;;;;;6.13;4.85;;;;;1.20;99613.00;;;;4938462;29;20051;-63
2023/01/29 07:01:42;;;;;;;5.25;4.28;;;;;1.30;99613.00;;;;4937989;29;20147;-62
2023/01/29 07:04:10;;;;;;;6.43;5.15;;;;;1.20;99608.00;;;;4937540;29;20471;-62
2023/01/29 07:06:37;;;;;;;6.68;4.47;;;;;1.20;99603.00;;;;4921316;29;20043;-62
2023/01/29 07:09:04;;;;;;;5.63;4.88;;;;;1.20;99618.00;;;;4938286;29;20048;-62
2023/01/29 07:11:31;;;;;;;6.07;4.65;;;;;1.10;99609.00;;;;4921312;29;20051;-61
2023/01/29 07:13:57;;;;;;;6.30;4.47;;;;;1.10;99621.00;;;;4938225;29;20412;-61
2023/01/29 07:16:25;;;;;;;5.47;4.50;;;;;1.00;99621.00;;;;4937133;29;20099;-60
2023/01/29 07:18:52;;;;;;;6.20;4.97;;;;;1.00;99622.00;;;;4937056;29;20051;-62
2023/01/29 07:21:18;;;;;;;6.05;4.80;;;;;1.10;99635.00;;;;4937438;29;20054;-61
2023/01/29 07:23:45;;;;;;;6.65;4.75;;;;;1.00;99636.00;;;;4920236;29;20564;-61
2023/01/29 07:26:12;;;;;;;6.82;5.03;;;;;1.00;99628.00;;;;4936824;29;20047;-61
2023/01/29 07:28:39;;;;;;;6.10;4.70;;;;;0.90;99630.00;;;;4920171;29;20429;-60
2023/01/29 07:31:07;;;;;;;5.05;4.60;;;;;1.00;99629.00;;;;4937102;29;20047;-62
2023/01/29 07:33:34;;;;;;;5.78;4.65;;;;;1.00;99626.00;;;;4936795;29;20048;-61
2023/01/29 07:36:00;;;;;;;5.47;4.47;;;;;1.00;99618.00;;;;4936179;29;20420;-62
2023/01/29 07:38:27;;;;;;;5.72;4.82;;;;;1.00;99630.00;;;;4919880;29;20082;-60
2023/01/29 07:40:54;;;;;;;5.93;4.82;;;;;1.00;99632.00;;;;4935360;29;20405;-62
2023/01/29 07:43:23;;;;;;;6.32;5.15;;;;;1.00;99631.00;;;;4936618;29;20122;-63
2023/01/29 07:45:50;;;;;;;7.60;5.55;;;;;0.90;99633.00;;;;4936363;29;20050;-63
2023/01/29 07:48:17;;;;;;;7.28;5.05;;;;;0.80;99637.00;;;;4919323;29;20048;-62
2023/01/29 07:50:44;;;;;;;7.97;5.93;;;;;0.90;99634.00;;;;4936467;29;20040;-61
2023/01/29 07:53:13;;;;;;;7.18;5.15;;;;;1.00;99650.00;;;;4936427;29;20044;-62
2023/01/29 07:55:43;;;;;;;6.75;4.82;;;;;1.20;99644.00;;;;4935784;29;20416;-63
2023/01/29 07:58:10;;;;;;;8.18;5.47;;;;;1.30;99647.00;;;;4936419;29;20048;-62
2023/01/29 08:00:37;;;;;;;8.98;6.45;;;;;1.30;99649.00;;;;4936350;29;20048;-61
2023/01/29 08:03:06;;;;;;;7.03;5.50;;;;;1.40;99667.00;;;;4936047;29;20052;-62
2023/01/29 08:05:33;;;;;;;6.47;5.55;;;;;1.30;99659.00;;;;4935393;29;20128;-62
2023/01/29 08:07:59;;;;;;;7.25;5.43;;;;;1.10;99653.00;;;;4919581;29;20099;-60
2023/01/29 08:10:34;;;;;;;10.32;6.85;;;;;1.00;99649.00;;;;4920410;29;20134;-62
2023/01/29 08:13:02;;;;;;;11.02;6.95;;;;;1.10;99653.00;;;;4919141;29;20047;-62
2023/01/29 08:15:29;;;;;;;8.60;6.35;;;;;1.10;99658.00;;;;4935835;29;20055;-63
2023/01/29 08:17:56;;;;;;;6.60;5.90;;;;;1.10;99659.00;;;;4936403;29;20047;-61
2023/01/29 08:20:24;;;;;;;9.95;6.80;;;;;1.10;99664.00;;;;4936192;29;20417;-63
2023/01/29 08:23:01;;;;;;;16.05;10.57;;;;;1.30;99664.00;;;;4919284;29;20086;-60
2023/01/29 08:25:28;;;;;;;12.38;7.70;;;;;1.40;99673.00;;;;4935700;29;20044;-60
2023/01/29 08:27:56;;;;;;;21.98;12.18;;;;;1.30;99663.00;;;;4936063;29;20235;-61
2023/01/29 08:30:28;;;;;;;77.93;39.17;;;;;1.30;99668.00;;;;4919772;29;20051;-60
2023/01/29 08:32:55;;;;;;;10.75;8.13;;;;;1.40;99661.00;;;;4936954;29;20060;-62
2023/01/29 08:35:22;;;;;;;16.88;9.82;;;;;1.40;99653.00;;;;4935848;29;20062;-62
2023/01/29 08:37:53;;;;;;;69.53;35.60;;;;;1.40;99647.00;;;;4936667;29;20086;-63
2023/01/29 08:40:24;;;;;;;35.50;20.60;;;;;1.50;99662.00;;;;4919796;29;20486;-62
2023/01/29 08:42:51;;;;;;;25.80;16.85;;;;;1.50;99672.00;;;;4918605;29;20075;-64
2023/01/29 08:45:17;;;;;;;22.25;13.50;;;;;1.70;99668.00;;;;4935296;29;20521;-63
2023/01/29 08:47:46;;;;;;;18.90;11.15;;;;;1.70;99666.00;;;;4919463;29;20043;-61
2023/01/29 08:50:13;;;;;;;13.95;8.77;;;;;1.70;99676.00;;;;4903550;29;20425;-63
2023/01/29 08:52:41;;;;;;;21.67;10.35;;;;;1.80;99679.00;;;;4935662;29;20051;-63
2023/01/29 08:55:08;;;;;;;15.50;10.07;;;;;1.80;99673.00;;;;4935634;29;20054;-63
2023/01/29 08:57:36;;;;;;;19.63;10.70;;;;;1.90;99668.00;;;;4936209;29;20134;-63
2023/01/29 09:00:04;;;;;;;16.10;8.43;;;;;2.00;99646.00;;;;4918983;29;20468;-63
2023/01/29 09:02:31;;;;;;;23.65;13.15;;;;;2.00;99637.00;;;;4935471;29;20043;-63
2023/01/29 09:04:58;;;;;;;9.00;6.63;;;;;2.10;99629.00;;;;4935129;29;20052;-63
2023/01/29 09:07:24;;;;;;;10.23;6.97;;;;;2.10;99626.00;;;;4936073;29;20485;-63
2023/01/29 09:09:51;;;;;;;7.57;5.40;;;;;2.10;99612.00;;;;4918523;29;20044;-63
2023/01/29 09:12:18;;;;;;;8.15;5.32;;;;;2.20;99606.00;;;;4918310;29;20484;-63
2023/01/29 09:14:44;;;;;;;7.88;6.35;;;;;2.40;99601.00;;;;4918329;29;20432;-63
2023/01/29 09:17:11;;;;;;;7.45;5.22;;;;;2.50;99608.00;;;;4935373;29;20130;-63
2023/01/29 09:19:37;;;;;;;7.80;6.53;;;;;2.70;99611.00;;;;4918415;29;20055;-63
2023/01/29 09:22:04;;;;;;;7.05;4.85;;;;;2.80;99620.00;;;;4935208;29;20106;-63
2023/01/29 09:24:31;;;;;;;19.80;6.90;;;;;3.00;99619.00;;;;4934612;29;20387;-63
2023/01/29 09:26:58;;;;;;;9.52;6.45;;;;;3.10;99625.00;;;;4935206;29;20043;-64
2023/01/29 09:29:24;;;;;;;8.55;6.63;;;;;3.10;99632.00;;;;4934845;29;20139;-63
2023/01/29 09:31:51;;;;;;;6.90;5.50;;;;;3.10;99630.00;;;;4902188;29;20089;-63
2023/01/29 09:34:18;;;;;;;6.90;5.00;;;;;3.30;99637.00;;;;4934156;29;20087;-63
2023/01/29 09:36:45;;;;;;;6.93;5.40;;;;;3.40;99646.00;;;;4934723;29;20457;-63
2023/01/29 09:39:11;;;;;;;6.78;5.60;;;;;3.50;99641.00;;;;4935086;29;20124;-62
2023/01/29 09:42:07;;;;;;;7.65;5.85;;;;;3.50;99648.00;;;;4918063;29;20413;-63
2023/01/29 09:44:57;;;;;;;7.82;5.40;;;;;3.20;99644.00;;;;4934190;29;20051;-62
2023/01/29 09:47:26;;;;;;;7.90;5.05;;;;;3.20;99647.00;;;;4934707;29;20122;-64
2023/01/29 09:50:04;;;;;;;6.30;5.40;;;;;3.30;99654.00;;;;4934794;29;20054;-63
2023/01/29 09:52:39;;;;;;;7.57;5.75;;;;;3.50;99661.00;;;;4917866;29;20078;-62
2023/01/29 09:55:13;;;;;;;8.75;5.78;;;;;3.70;99660.00;;;;4917357;29;20051;-63
2023/01/29 09:57:45;;;;;;;;;;;;;3.70;99664.00;;;;4935689;29;20126;-64
2023/01/29 10:00:24;;;;;;;9.73;6.07;;;;;3.50;99663.00;;;;4918270;29;20291;-64
2023/01/29 10:03:10;;;;;;;8.40;5.30;;;;;3.50;99669.00;;;;4917840;29;20060;-65
2023/01/29 10:06:06;;;;;;;9.70;5.22;;;;;3.40;99675.00;;;;4937742;29;20533;-63
2023/01/29 10:08:58;;;;;;;7.63;4.78;;;;;3.30;99675.00;;;;4921197;29;20520;-63
2023/01/29 10:11:50;;;;;;;7.55;5.47;;;;;3.30;99680.00;;;;4938171;29;20052;-64
2023/01/29 10:14:23;;;;;;;6.00;4.68;;;;;3.10;99680.00;;;;4920680;29;20417;-62
2023/01/29 10:16:52;;;;;;;7.85;4.82;;;;;3.00;99674.00;;;;4938358;29;20047;-63
2023/01/29 10:19:53;;;;;;;6.38;4.65;;;;;2.90;99662.00;;;;4938761;29;20501;-64
2023/01/29 10:22:39;;;;;;;9.77;5.38;;;;;3.00;99681.00;;;;4905853;29;20568;-63
2023/01/29 10:25:12;;;;;;;5.93;5.07;;;;;3.00;99674.00;;;;4923384;29;20051;-63
2023/01/29 10:27:43;;;;;;;6.47;4.85;;;;;2.80;99679.00;;;;4923137;29;20409;-62
2023/01/29 10:30:25;;;;;;;10.93;7.65;;;;;2.60;99657.00;;;;4939672;29;20515;-62
2023/01/29 10:32:53;;;;;;;5.55;5.03;;;;;2.80;99665.00;;;;4921479;29;20135;-62
2023/01/29 10:35:24;;;;;;;6.22;5.28;;;;;2.90;99666.00;;;;4938613;29;20409;-62
2023/01/29 10:37:53;;;;;;;6.15;4.70;;;;;2.90;99662.00;;;;4938146;29;20412;-64
2023/01/29 10:40:21;;;;;;;5.75;4.55;;;;;2.90;99651.00;;;;4937755;29;20571;-63
2023/01/29 10:43:01;;;;;;;6.82;4.88;;;;;2.50;99649.00;;;;4920873;29;20066;-63
2023/01/29 10:45:33;;;;;;;5.72;4.88;;;;;2.50;99644.00;;;;4937672;29;20048;-61
2023/01/29 10:48:20;;;;;;;6.55;5.45;;;;;2.60;99645.00;;;;4938945;29;20043;-62
2023/01/29 10:50:53;;;;;;;6.47;5.32;;;;;2.70;99646.00;;;;4939017;29;20054;-62
2023/01/29 10:53:52;;;;;;;7.68;5.55;;;;;2.60;99645.00;;;;4938339;29;20127;-62
2023/01/29 10:56:28;;;;;;;5.82;5.15;;;;;2.50;99628.00;;;;4938625;29;20493;-63
2023/01/29 10:59:04;;;;;;;6.57;4.75;;;;;2.40;99635.00;;;;4939107;29;20075;-62
2023/01/29 11:01:30;;;;;;;5.65;5.05;;;;;2.50;99635.00;;;;4939151;29;20054;-64
2023/01/29 11:04:00;;;;;;;5.72;5.03;;;;;2.70;99634.00;;;;4939349;29;20052;-64
2023/01/29 11:06:35;;;;;;;7.05;4.85;;;;;2.80;99618.00;;;;4939202;29;20036;-64
2023/01/29 11:09:18;;;;;;;10.02;7.22;;;;;3.00;99599.00;;;;4939660;29;20047;-63
2023/01/29 11:11:51;;;;;;;9.68;5.68;;;;;3.20;99597.00;;;;4938434;29;20044;-63
2023/01/29 11:14:23;;;;;;;10.02;5.45;;;;;3.20;99590.00;;;;4937535;29;20535;-64
2023/01/29 11:16:50;;;;;;;6.60;5.20;;;;;3.00;99584.00;;;;4938523;29;20059;-61
2023/01/29 11:19:18;;;;;;;8.52;5.32;;;;;3.10;99587.00;;;;4939396;29;20142;-62
2023/01/29 11:21:57;;;;;;;7.43;5.50;;;;;3.30;99587.00;;;;4940216;29;20130;-64
2023/01/29 11:24:24;;;;;;;7.57;5.63;;;;;3.60;99590.00;;;;4937866;29;20052;-63
2023/01/29 11:26:57;;;;;;;7.22;5.15;;;;;3.70;99573.00;;;;4938604;29;20050;-62
2023/01/29 11:29:43;;;;;;;7.13;5.35;;;;;3.70;99572.00;;;;4939728;29;20047;-63
2023/01/29 11:32:32;;;;;;;6.65;5.75;;;;;3.70;99562.00;;;;4940114;29;20515;-65
2023/01/29 11:35:19;;;;;;;12.95;8.18;;;;;3.60;99554.00;;;;4921813;29;20048;-63
2023/01/29 11:37:47;;;;;;;12.77;8.50;;;;;3.60;99554.00;;;;4921069;29;20044;-62
2023/01/29 11:40:36;;;;;;;8.02;6.70;;;;;3.60;99551.00;;;;4921090;29;20528;-62
2023/01/29 11:43:29;;;;;;;8.20;6.82;;;;;3.60;99527.00;;;;4921261;29;20058;-63
2023/01/29 11:46:10;;;;;;;7.30;6.57;;;;;3.60;99532.00;;;;4936962;29;20063;-64
2023/01/29 11:48:50;;;;;;;6.90;5.80;;;;;3.70;99522.00;;;;4938538;29;20388;-65
2023/01/29 11:51:26;;;;;;;5.68;5.05;;;;;3.80;99516.00;;;;4937067;29;20047;-63
2023/01/29 11:54:01;;;;;;;11.00;5.75;;;;;3.90;99519.00;;;;4937558;29;20040;-64
2023/01/29 11:56:41;;;;;;;9.45;5.25;;;;;4.00;99523.00;;;;4939235;29;20055;-63
2023/01/29 11:59:30;;;;;;;5.65;5.03;;;;;3.80;99511.00;;;;4921411;29;20103;-63
2023/01/29 12:02:11;;;;;;;8.00;5.85;;;;;3.80;99505.00;;;;4919776;29;20040;-63
2023/01/29 12:04:47;;;;;;;13.18;8.80;;;;;3.80;99512.00;;;;4936757;29;20051;-65
2023/01/29 12:07:17;;;;;;;13.20;7.97;;;;;3.70;99511.00;;;;4920176;29;20044;-63
2023/01/29 12:09:53;;;;;;;7.97;6.53;;;;;3.70;99509.00;;;;4936525;29;20052;-63
2023/01/29 12:12:33;;;;;;;8.07;6.80;;;;;3.70;99511.00;;;;4936214;29;20062;-62
2023/01/29 12:15:13;;;;;;;8.13;6.47;;;;;3.70;99509.00;;;;4919081;29;20043;-63
2023/01/29 12:17:44;;;;;;;8.93;6.18;;;;;3.80;99495.00;;;;4936635;29;20043;-63
2023/01/29 12:20:15;;;;;;;9.02;6.05;;;;;4.00;99496.00;;;;4919702;29;20430;-63
2023/01/29 12:22:55;;;;;;;6.22;5.63;;;;;4.10;99496.00;;;;4936778;29;20102;-61
2023/01/29 12:25:33;;;;;;;7.60;6.10;;;;;4.10;99501.00;;;;4936456;29;20047;-62
2023/01/29 12:28:29;;;;;;;7.63;5.90;;;;;4.10;99492.00;;;;4936724;29;20043;-62
2023/01/29 12:31:14;;;;;;;10.03;6.53;;;;;4.20;99486.00;;;;4937687;29;20135;-62
2023/01/29 12:33:50;;;;;;;8.88;6.28;;;;;4.10;99489.00;;;;4936432;29;20043;-62
2023/01/29 12:36:33;;;;;;;7.78;6.10;;;;;4.20;99483.00;;;;4935839;29;20050;-62
2023/01/29 12:39:00;;;;;;;7.82;5.85;;;;;4.20;99481.00;;;;4935771;29;20413;-63
2023/01/29 12:41:37;;;;;;;8.43;6.95;;;;;4.20;99478.00;;;;4935714;29;20493;-62
2023/01/29 12:44:18;;;;;;;7.63;5.80;;;;;4.10;99477.00;;;;4923773;29;20058;-62
2023/01/29 12:46:57;;;;;;;7.35;5.90;;;;;4.00;99477.00;;;;4927534;29;20048;-63
2023/01/29 12:49:29;;;;;;;7.82;6.22;;;;;3.90;99474.00;;;;4944062;29;20051;-62
2023/01/29 12:51:59;;;;;;;7.00;6.30;;;;;3.90;99467.00;;;;4929107;29;20047;-61
2023/01/29 12:54:54;;;;;;;8.30;6.60;;;;;4.10;99453.00;;;;4944138;29;20106;-63
2023/01/29 12:57:31;;;;;;;6.55;5.88;;;;;4.30;99456.00;;;;4937842;29;20119;-63
2023/01/29 13:00:12;;;;;;;7.45;6.40;;;;;4.20;99454.00;;;;4941284;29;20047;-62
2023/01/29 13:03:20;;;;;;;8.10;6.90;;;;;4.20;99441.00;;;;4941490;29;20545;-61
2023/01/29 13:05:52;;;;;;;7.43;5.85;;;;;4.30;99421.00;;;;4939674;29;20051;-62
2023/01/29 13:08:38;;;;;;;6.55;5.45;;;;;4.30;99426.00;;;;4938472;29;20119;-62
2023/01/29 13:11:15;;;;;;;10.35;6.32;;;;;4.40;99421.00;;;;4921973;29;20527;-64
2023/01/29 13:13:51;;;;;;;9.63;6.25;;;;;4.60;99431.00;;;;4937788;29;20130;-61
2023/01/29 13:16:26;;;;;;;8.93;5.95;;;;;4.80;99438.00;;;;4918660;29;20048;-61
2023/01/29 13:18:59;;;;;;;8.70;7.15;;;;;4.70;99431.00;;;;4936484;29;20059;-62
2023/01/29 13:21:40;;;;;;;8.70;6.63;;;;;4.60;99431.00;;;;4937354;29;20512;-61
2023/01/29 13:24:16;;;;;;;8.60;6.63;;;;;4.60;99442.00;;;;4935072;29;20565;-61
2023/01/29 13:26:47;;;;;;;8.98;7.30;;;;;4.60;99438.00;;;;4936657;29;20056;-61
2023/01/29 13:29:26;;;;;;;10.50;7.63;;;;;4.50;99427.00;;;;4935818;29;20052;-61